createdAt,value
2022-08-23T00:00:59.522Z,41.86
2022-08-23T00:04:07.763Z,41.58
2022-08-23T00:07:12.009Z,41.59
2022-08-23T00:10:15.964Z,41.49
2022-08-23T00:13:17.391Z,41.47
2022-08-23T00:16:18.894Z,41.68
2022-08-23T00:19:22.823Z,42.11
2022-08-23T00:22:24.344Z,42.04
2022-08-23T00:25:25.805Z,42.30
2022-08-23T00:28:27.250Z,42.07
2022-08-23T00:31:28.982Z,42.36
2022-08-23T00:34:30.575Z,42.45
2022-08-23T00:37:32.907Z,42.43
2022-08-23T00:40:34.356Z,41.90
2022-08-23T00:43:57.963Z,42.53
2022-08-23T00:47:18.197Z,42.44
2022-08-23T00:50:32.062Z,42.85
2022-08-23T00:53:38.811Z,42.61
2022-08-23T00:56:40.874Z,42.85
2022-08-23T00:59:42.663Z,42.61
2022-08-23T01:02:47.462Z,43.11
2022-08-23T01:05:55.596Z,43.00
2022-08-23T01:09:01.259Z,43.31
2022-08-23T01:12:16.328Z,43.03
2022-08-23T01:15:32.150Z,43.30
2022-08-23T01:18:34.330Z,43.36
2022-08-23T01:21:45.372Z,43.63
2022-08-23T01:25:06.052Z,43.63
2022-08-23T01:28:12.167Z,43.56
2022-08-23T01:31:15.610Z,43.78
2022-08-23T01:34:18.261Z,43.33
2022-08-23T01:37:21.126Z,43.77
2022-08-23T01:40:23.558Z,43.72
2022-08-23T01:43:25.151Z,43.71
2022-08-23T01:46:28.890Z,43.95
2022-08-23T01:49:30.846Z,43.57
2022-08-23T01:52:32.365Z,43.88
2022-08-23T01:55:35.480Z,44.30
2022-08-23T01:58:37.411Z,44.22
2022-08-23T02:01:39.211Z,44.65
2022-08-23T02:04:40.714Z,44.38
2022-08-23T02:07:42.994Z,44.68
2022-08-23T02:10:44.686Z,44.94
2022-08-23T02:13:46.354Z,44.60
2022-08-23T02:17:02.820Z,44.69
2022-08-23T02:20:07.654Z,44.94
2022-08-23T02:23:09.218Z,45.01
2022-08-23T02:26:10.765Z,44.66
2022-08-23T02:29:14.590Z,44.86
2022-08-23T02:32:19.506Z,45.02
2022-08-23T02:35:23.069Z,45.30
2022-08-23T02:38:25.344Z,44.75
2022-08-23T02:41:27.058Z,45.25
2022-08-23T02:44:31.192Z,45.28
2022-08-23T02:47:32.720Z,45.27
2022-08-23T02:50:46.798Z,45.33
2022-08-23T02:53:48.651Z,45.01
2022-08-23T02:56:52.667Z,45.03
2022-08-23T02:59:55.114Z,45.37
2022-08-23T03:02:57.327Z,45.44
2022-08-23T03:06:25.696Z,45.50
2022-08-23T03:09:21.857Z,45.71
2022-08-23T03:12:24.356Z,45.83
2022-08-23T03:15:29.231Z,46.17
2022-08-23T03:18:30.746Z,45.86
2022-08-23T03:21:35.939Z,46.17
2022-08-23T03:24:37.727Z,46.62
2022-08-23T03:27:44.866Z,46.55
2022-08-23T03:30:47.198Z,46.40
2022-08-23T03:33:49.007Z,46.48
2022-08-23T03:36:51.789Z,46.29
2022-08-23T03:39:53.923Z,46.77
2022-08-23T03:42:55.706Z,46.87
2022-08-23T03:45:59.799Z,46.55
2022-08-23T03:49:03.392Z,46.73
2022-08-23T03:52:15.685Z,47.04
2022-08-23T03:55:17.442Z,47.01
2022-08-23T03:58:23.455Z,47.27
2022-08-23T04:01:28.646Z,46.88
2022-08-23T04:04:31.093Z,47.07
2022-08-23T04:08:08.595Z,47.30
2022-08-23T04:11:12.107Z,47.45
2022-08-23T04:14:18.525Z,47.56
2022-08-23T04:17:21.482Z,47.49
2022-08-23T04:20:23.722Z,47.39
2022-08-23T04:23:30.285Z,47.82
2022-08-23T04:26:32.569Z,47.99
2022-08-23T04:29:34.808Z,47.83
2022-08-23T04:32:39.707Z,47.66
2022-08-23T04:35:41.439Z,48.26
2022-08-23T04:38:43.867Z,48.29
2022-08-23T04:42:06.457Z,48.34
2022-08-23T04:45:09.396Z,47.83
2022-08-23T04:48:13.790Z,48.09
2022-08-23T04:51:21.602Z,48.26
2022-08-23T04:54:24.470Z,47.96
2022-08-23T04:57:44.718Z,47.95
2022-08-23T05:00:51.841Z,48.33
2022-08-23T05:03:58.361Z,48.36
2022-08-23T05:07:01.345Z,48.11
2022-08-23T05:10:05.348Z,48.34
2022-08-23T05:13:06.837Z,48.11
2022-08-23T05:16:08.391Z,47.90
2022-08-23T05:19:14.600Z,47.81
2022-08-23T05:22:18.885Z,48.28
2022-08-23T05:25:49.523Z,48.16
2022-08-23T05:29:04.696Z,48.17
2022-08-23T05:32:12.821Z,48.27
2022-08-23T05:35:14.329Z,48.28
2022-08-23T05:38:20.825Z,48.70
2022-08-23T05:41:23.139Z,48.45
2022-08-23T05:44:36.449Z,47.98
2022-08-23T05:47:39.478Z,48.02
2022-08-23T05:50:57.209Z,48.19
2022-08-23T05:54:04.015Z,47.86
2022-08-23T05:57:05.845Z,47.79
2022-08-23T06:00:12.273Z,47.44
2022-08-23T06:03:20.246Z,47.40
2022-08-23T06:06:22.337Z,47.37
2022-08-23T06:09:37.863Z,47.05
2022-08-23T06:12:40.766Z,46.87
2022-08-23T06:15:44.082Z,46.72
2022-08-23T06:18:47.145Z,46.65
2022-08-23T06:22:18.717Z,46.47
2022-08-23T06:25:20.234Z,46.89
2022-08-23T06:28:32.031Z,46.28
2022-08-23T06:31:46.771Z,46.50
2022-08-23T06:34:51.450Z,45.95
2022-08-23T06:38:19.698Z,45.91
2022-08-23T06:41:24.639Z,45.78
2022-08-23T06:44:41.704Z,45.70
2022-08-23T06:48:00.160Z,45.49
2022-08-23T06:51:02.000Z,45.58
2022-08-23T06:54:31.317Z,45.27
2022-08-23T06:57:42.818Z,45.29
2022-08-23T07:01:44.081Z,44.88
2022-08-23T07:04:53.887Z,44.87
2022-08-23T07:08:13.375Z,44.63
2022-08-23T07:11:14.977Z,44.55
2022-08-23T07:14:19.475Z,45.08
2022-08-23T07:17:20.966Z,44.32
2022-08-23T07:20:23.316Z,44.37
2022-08-23T07:23:25.954Z,44.43
2022-08-23T07:26:27.806Z,44.02
2022-08-23T07:29:31.012Z,44.02
2022-08-23T07:32:33.090Z,44.06
2022-08-23T07:35:49.778Z,43.92
2022-08-23T07:38:51.794Z,43.38
2022-08-23T07:41:53.951Z,42.65
2022-08-23T07:44:56.301Z,42.61
2022-08-23T07:48:01.900Z,43.17
2022-08-23T07:51:11.669Z,42.22
2022-08-23T07:54:14.508Z,42.84
2022-08-23T07:57:27.378Z,42.54
2022-08-23T08:00:41.537Z,42.08
2022-08-23T08:04:15.865Z,41.74
2022-08-23T08:07:21.589Z,41.22
2022-08-23T08:10:31.562Z,41.95
2022-08-23T08:13:33.126Z,41.49
2022-08-23T08:16:38.237Z,41.56
2022-08-23T08:19:41.579Z,41.42
2022-08-23T08:23:11.688Z,41.14
2022-08-23T08:26:31.724Z,41.49
2022-08-23T08:29:34.774Z,41.12
2022-08-23T08:32:37.382Z,41.48
2022-08-23T08:35:38.981Z,41.91
2022-08-23T08:38:48.412Z,41.51
2022-08-23T08:42:23.487Z,41.31
2022-08-23T08:45:32.495Z,41.12
2022-08-23T08:48:41.893Z,41.03
2022-08-23T08:51:53.330Z,40.79
2022-08-23T08:55:02.467Z,40.46
2022-08-23T08:58:06.889Z,40.30
2022-08-23T09:01:08.950Z,40.59
2022-08-23T09:04:10.994Z,40.82
2022-08-23T09:07:41.252Z,40.48
2022-08-23T09:11:04.286Z,39.94
2022-08-23T09:14:49.606Z,39.46
2022-08-23T09:17:57.251Z,38.73
2022-08-23T09:21:01.798Z,39.18
2022-08-23T09:24:04.892Z,38.87
2022-08-23T09:27:35.825Z,39.42
2022-08-23T09:30:56.202Z,39.57
2022-08-23T09:33:59.718Z,38.85
2022-08-23T09:37:16.766Z,38.30
2022-08-23T09:40:38.950Z,38.24
2022-08-23T09:43:47.097Z,37.82
2022-08-23T09:46:50.042Z,37.68
2022-08-23T09:49:54.538Z,37.83
2022-08-23T09:53:08.157Z,37.09
2022-08-23T09:56:15.049Z,37.31
2022-08-23T09:59:26.515Z,36.89
2022-08-23T10:02:34.479Z,36.32
2022-08-23T10:05:57.744Z,35.52
2022-08-23T10:09:05.312Z,35.34
2022-08-23T10:12:09.222Z,35.51
2022-08-23T10:15:13.316Z,35.04
2022-08-23T10:18:27.525Z,34.78
2022-08-23T10:21:41.101Z,34.58
2022-08-23T10:25:00.448Z,34.83
2022-08-23T10:28:39.361Z,34.78
2022-08-23T10:32:03.604Z,34.57
2022-08-23T10:35:26.693Z,34.20
2022-08-23T10:38:41.205Z,34.78
2022-08-23T10:41:46.911Z,33.91
2022-08-23T10:45:07.130Z,33.53
2022-08-23T10:48:28.642Z,33.71
2022-08-23T10:51:36.251Z,32.51
2022-08-23T10:55:05.868Z,33.45
2022-08-23T10:58:21.155Z,32.98
2022-08-23T11:01:28.902Z,33.13
2022-08-23T11:04:53.392Z,32.68
2022-08-23T11:08:09.267Z,32.18
2022-08-23T11:11:50.168Z,31.53
2022-08-23T11:15:07.406Z,31.11
2022-08-23T11:18:37.886Z,30.62
2022-08-23T11:21:44.630Z,29.20
2022-08-23T11:25:05.557Z,29.73
2022-08-23T11:28:25.831Z,28.50
2022-08-23T11:31:42.894Z,28.21
2022-08-23T11:35:05.620Z,29.65
2022-08-23T11:38:08.299Z,29.33
2022-08-23T11:41:32.391Z,29.46
2022-08-23T11:44:48.154Z,29.81
2022-08-23T11:48:24.221Z,29.62
2022-08-23T11:51:55.697Z,28.71
2022-08-23T11:55:22.130Z,28.13
2022-08-23T11:58:51.884Z,28.33
2022-08-23T12:01:54.353Z,28.33
2022-08-23T12:04:59.708Z,28.34
2022-08-23T12:08:01.429Z,29.10
2022-08-23T12:11:09.041Z,28.72
2022-08-23T12:14:32.256Z,28.28
2022-08-23T12:17:40.473Z,28.02
2022-08-23T12:20:44.732Z,28.54
2022-08-23T12:23:53.854Z,28.52
2022-08-23T12:27:09.108Z,28.15
2022-08-23T12:30:22.327Z,28.33
2022-08-23T12:33:29.923Z,27.55
2022-08-23T12:36:57.830Z,28.12
2022-08-23T12:40:02.235Z,26.83
2022-08-23T12:43:23.430Z,26.53
2022-08-23T12:46:34.884Z,27.65
2022-08-23T12:49:36.384Z,27.32
2022-08-23T12:52:38.493Z,28.07
2022-08-23T12:55:44.026Z,27.71
2022-08-23T12:58:52.073Z,27.53
2022-08-23T13:01:54.483Z,27.16
2022-08-23T13:05:03.813Z,27.18
2022-08-23T13:08:13.805Z,25.95
2022-08-23T13:11:19.818Z,25.91
2022-08-23T13:14:42.298Z,25.58
2022-08-23T13:17:43.717Z,26.29
2022-08-23T13:20:45.180Z,26.36
2022-08-23T13:23:47.880Z,27.07
2022-08-23T13:26:49.652Z,27.18
2022-08-23T13:29:52.472Z,27.12
2022-08-23T13:33:09.141Z,25.09
2022-08-23T13:36:19.105Z,25.57
2022-08-23T13:39:22.923Z,25.33
2022-08-23T13:42:38.178Z,24.92
2022-08-23T13:45:49.986Z,24.30
2022-08-23T13:49:00.210Z,24.39
2022-08-23T13:55:24.055Z,24.39
2022-08-23T13:58:32.110Z,24.07
2022-08-23T14:01:33.839Z,24.31
2022-08-23T14:04:35.550Z,23.90
2022-08-23T14:07:37.004Z,23.05
2022-08-23T14:10:38.428Z,23.30
2022-08-23T14:13:40.060Z,23.49
2022-08-23T14:16:41.571Z,22.97
2022-08-23T14:23:12.505Z,22.86
2022-08-23T14:26:17.677Z,23.32
2022-08-23T14:29:23.717Z,22.95
2022-08-23T14:32:25.616Z,22.72
2022-08-23T14:35:27.230Z,22.32
2022-08-23T14:38:28.690Z,22.15
2022-08-23T14:41:31.077Z,22.09
2022-08-23T14:44:36.063Z,22.25
2022-08-23T14:47:38.910Z,22.85
2022-08-23T14:50:41.164Z,22.24
2022-08-23T14:53:42.692Z,21.88
2022-08-23T14:56:44.598Z,21.74
2022-08-23T14:59:46.203Z,21.43
2022-08-23T15:02:49.965Z,21.78
2022-08-23T15:05:51.576Z,21.60
2022-08-23T15:08:53.426Z,21.35
2022-08-23T15:15:21.733Z,21.42
2022-08-23T15:18:24.488Z,21.71
2022-08-23T15:21:27.038Z,21.40
2022-08-23T15:24:29.058Z,21.07
2022-08-23T15:27:31.208Z,21.14
2022-08-23T15:30:33.400Z,21.67
2022-08-23T15:33:35.128Z,20.96
2022-08-23T15:36:41.315Z,21.52
2022-08-23T15:39:42.927Z,21.50
2022-08-23T15:42:44.378Z,20.68
2022-08-23T15:45:46.111Z,20.72
2022-08-23T15:49:05.096Z,21.04
2022-08-23T15:52:06.588Z,19.89
2022-08-23T15:55:08.416Z,20.68
2022-08-23T15:58:16.089Z,20.36
2022-08-23T16:01:19.847Z,20.49
2022-08-23T16:04:24.241Z,20.72
2022-08-23T16:07:25.749Z,20.65
2022-08-23T16:10:28.359Z,20.24
2022-08-23T16:13:29.970Z,19.60
2022-08-23T16:16:36.435Z,19.68
2022-08-23T16:19:37.962Z,20.01
2022-08-23T16:22:39.748Z,20.10
2022-08-23T16:25:41.987Z,20.16
2022-08-23T16:28:44.973Z,20.08
2022-08-23T16:31:47.094Z,20.35
2022-08-23T16:34:48.570Z,21.36
2022-08-23T16:37:50.234Z,21.85
2022-08-23T16:40:51.785Z,22.34
2022-08-23T16:43:53.207Z,22.00
2022-08-23T16:46:55.211Z,22.33
2022-08-23T16:49:56.705Z,22.61
2022-08-23T16:52:58.622Z,22.72
2022-08-23T16:56:00.497Z,22.55
2022-08-23T16:59:03.914Z,22.20
2022-08-23T17:02:10.900Z,23.28
2022-08-23T17:05:15.991Z,23.03
2022-08-23T17:08:17.582Z,23.33
2022-08-23T17:11:19.474Z,23.17
2022-08-23T17:14:21.621Z,23.39
2022-08-23T17:17:24.097Z,23.68
2022-08-23T17:20:28.992Z,24.05
2022-08-23T17:23:30.476Z,23.09
2022-08-23T17:26:32.042Z,23.50
2022-08-23T17:29:37.499Z,24.13
2022-08-23T17:32:39.174Z,24.10
2022-08-23T17:35:40.609Z,24.44
2022-08-23T17:38:42.044Z,24.46
2022-08-23T17:41:45.510Z,24.39
2022-08-23T17:44:47.234Z,25.23
2022-08-23T17:47:48.779Z,24.65
2022-08-23T17:50:50.230Z,25.00
2022-08-23T17:53:51.645Z,25.29
2022-08-23T17:56:53.354Z,25.22
2022-08-23T17:59:54.847Z,25.59
2022-08-23T18:02:56.327Z,25.98
2022-08-23T18:05:58.695Z,26.28
2022-08-23T18:09:02.694Z,26.59
2022-08-23T18:12:04.396Z,26.44
2022-08-23T18:15:06.637Z,27.01
2022-08-23T18:18:08.090Z,27.63
2022-08-23T18:21:12.595Z,27.89
2022-08-23T18:24:14.071Z,28.39
2022-08-23T18:27:34.178Z,28.99
2022-08-23T18:30:39.199Z,29.60
2022-08-23T18:33:46.840Z,28.72
2022-08-23T18:36:48.862Z,29.13
2022-08-23T18:39:50.463Z,29.47
2022-08-23T18:42:52.068Z,29.64
2022-08-23T18:45:56.023Z,29.59
2022-08-23T18:48:57.538Z,29.75
2022-08-23T18:51:59.311Z,30.15
2022-08-23T18:55:00.902Z,29.93
2022-08-23T18:58:03.523Z,30.85
2022-08-23T19:01:25.024Z,31.38
2022-08-23T19:04:26.714Z,32.08
2022-08-23T19:07:28.214Z,31.63
2022-08-23T19:10:29.996Z,32.05
2022-08-23T19:13:33.036Z,32.37
2022-08-23T19:16:36.862Z,33.41
2022-08-23T19:19:38.534Z,33.88
2022-08-23T19:22:40.398Z,33.09
2022-08-23T19:25:45.238Z,33.60
2022-08-23T19:28:47.305Z,33.93
2022-08-23T19:31:50.239Z,33.99
2022-08-23T19:34:51.778Z,34.44
2022-08-23T19:37:53.236Z,34.89
2022-08-23T19:40:56.145Z,35.46
2022-08-23T19:43:58.290Z,35.21
2022-08-23T19:47:00.121Z,35.30
2022-08-23T19:50:01.642Z,35.67
2022-08-23T19:53:04.115Z,35.41
2022-08-23T19:56:07.058Z,36.82
2022-08-23T19:59:12.164Z,35.24
2022-08-23T20:02:14.253Z,35.32
2022-08-23T20:05:16.828Z,35.86
2022-08-23T20:08:18.889Z,35.90
2022-08-23T20:11:20.426Z,36.08
2022-08-23T20:14:24.424Z,36.36
2022-08-23T20:17:26.855Z,36.33
2022-08-23T20:20:28.313Z,36.20
2022-08-23T20:23:48.066Z,36.18
2022-08-23T20:26:50.422Z,36.03
2022-08-23T20:29:53.018Z,36.59
2022-08-23T20:32:54.816Z,36.21
2022-08-23T20:35:56.251Z,37.11
2022-08-23T20:39:00.110Z,37.01
2022-08-23T20:42:01.564Z,36.99
2022-08-23T20:45:03.369Z,37.09
2022-08-23T20:48:04.970Z,37.70
2022-08-23T20:51:10.573Z,37.18
2022-08-23T20:54:12.983Z,37.49
2022-08-23T20:57:14.459Z,37.84
2022-08-23T21:00:16.282Z,37.69
2022-08-23T21:03:18.537Z,37.55
2022-08-23T21:06:23.418Z,37.75
2022-08-23T21:09:29.155Z,37.88
2022-08-23T21:12:31.128Z,38.08
2022-08-23T21:15:32.668Z,38.32
2022-08-23T21:18:34.460Z,37.80
2022-08-23T21:21:37.762Z,37.88
2022-08-23T21:24:39.238Z,37.84
2022-08-23T21:27:41.370Z,38.21
2022-08-23T21:30:42.974Z,37.82
2022-08-23T21:33:45.026Z,37.88
2022-08-23T21:36:46.537Z,37.93
2022-08-23T21:39:48.005Z,37.21
2022-08-23T21:42:49.510Z,36.92
2022-08-23T21:45:52.020Z,37.60
2022-08-23T21:48:53.603Z,37.53
2022-08-23T21:51:55.057Z,37.91
2022-08-23T21:54:56.586Z,38.03
2022-08-23T21:57:59.124Z,38.03
2022-08-23T22:01:00.555Z,38.42
2022-08-23T22:04:07.368Z,38.02
2022-08-23T22:07:08.798Z,38.56
2022-08-23T22:10:10.688Z,37.95
2022-08-23T22:13:12.442Z,39.08
2022-08-23T22:16:13.907Z,38.63
2022-08-23T22:19:16.483Z,38.71
2022-08-23T22:22:17.946Z,38.00
2022-08-23T22:25:19.399Z,38.28
2022-08-23T22:28:20.862Z,38.32
2022-08-23T22:31:22.811Z,38.14
2022-08-23T22:34:24.345Z,38.47
2022-08-23T22:37:25.940Z,38.37
2022-08-23T22:40:27.497Z,38.30
2022-08-23T22:43:29.198Z,38.43
2022-08-23T22:46:33.509Z,38.85
2022-08-23T22:49:35.135Z,39.02
2022-08-23T22:52:37.017Z,39.29
2022-08-23T22:55:40.660Z,39.26
2022-08-23T22:58:42.563Z,39.82
2022-08-23T23:01:48.421Z,39.48
2022-08-23T23:04:50.643Z,39.71
2022-08-23T23:08:10.741Z,39.58
2022-08-23T23:11:13.978Z,39.64
2022-08-23T23:14:17.676Z,40.15
2022-08-23T23:17:19.089Z,40.90
2022-08-23T23:20:40.092Z,40.17
2022-08-23T23:23:41.518Z,40.38
2022-08-23T23:26:47.502Z,40.41
2022-08-23T23:29:49.278Z,40.44
2022-08-23T23:32:50.693Z,41.38
2022-08-23T23:35:52.129Z,41.20
2022-08-23T23:38:53.964Z,41.13
2022-08-23T23:41:55.813Z,40.92
2022-08-23T23:44:57.515Z,40.64
2022-08-23T23:47:59.450Z,40.64
2022-08-23T23:51:00.905Z,40.42
2022-08-23T23:54:02.438Z,40.70
2022-08-23T23:57:05.722Z,40.50
